Terminal Aerodrome Forecast
Issued by NWS

Home | Current Version | Previous Version | Text Only | Print | Product List | Glossary On
Versions: 1 2 3 4 5 6 7 8 9 10 11 12 13 14 15 16 17 18 19 20 21 22 23 24 25 26 27 28 29 30 31 32 33 34 35 36 37 38
000
FTUS44 KHGX 170913 AAA
TAFSGR
TAF AMD
KSGR 170913Z 1709/1806 18006KT 6SM BR BKN012 OVC025
      TEMPO 1710/1714 2SM BR BKN008
     FM171600 14005KT 5SM BR VCSH BKN012 BKN025
     FM171900 14008KT P6SM VCSH SCT015 BKN025
     FM180300 10004KT 3SM BR VCSH OVC004=

USA.gov is the U.S. government's official web portal to all federal, state and local government web resources and services.